Time;durP1;ratioP1;P1;durP2;ratioP2;P2;SDS_P1;SDS_P2;PMS_P1;PMS_P2;Temp;Humidity;BMP_temperature;BMP_pressure;BME280_temperature;BME280_humidity;BME280_pressure;Samples;Min_cycle;Max_cycle;Signal;HPM_P1;HPM_P2
2023/10/31 00:03:57;;;;;;;;;;;;;;;;;;5016665;28;5024;-60
2023/10/31 00:06:22;;;;;;;;;;;;;;;;;;4994748;28;4503;-61
2023/10/31 00:08:48;;;;;;;;;;;;;;;;;;4997438;28;1216;-59
2023/10/31 00:11:13;;;;;;;;;;;;;;;;;;4996417;28;5147;-59
2023/10/31 00:13:39;;;;;;;;;;;;;;;;;;4995818;28;5125;-63
2023/10/31 00:16:04;;;;;;;;;;;;;;;;;;5016030;28;5038;-59
2023/10/31 00:18:29;;;;;;;;;;;;;;;;;;5016025;28;5062;-59
2023/10/31 00:20:54;;;;;;;;;;;;;;;;;;5016852;28;5044;-60
2023/10/31 00:23:21;;;;;;;;;;;;;;;;;;5016236;28;1973;-59
2023/10/31 00:25:47;;;;;;;;;;;;;;;;;;5016068;28;5003;-61
2023/10/31 00:28:12;;;;;;;;;;;;;;;;;;5015704;28;5001;-60
2023/10/31 00:33:40;;;;;;;;;;;;;;;;;;4996266;28;4563;-60
2023/10/31 00:36:06;;;;;;;;;;;;;;;;;;4995779;28;4843;-60
2023/10/31 00:38:31;;;;;;;;;;;;;;;;;;4996538;28;1185;-60
2023/10/31 00:40:57;;;;;;;;;;;;;;;;;;4995993;28;5124;-60
2023/10/31 00:46:25;;;;;;;;;;;;;;;;;;4996432;28;5019;-59
2023/10/31 00:48:51;;;;;;;;;;;;;;;;;;4995990;28;4994;-60
2023/10/31 00:51:16;;;;;;;;;;;;;;;;;;5017236;28;5019;-59
2023/10/31 00:53:41;;;;;;;;;;;;;;;;;;5036064;28;1191;-60
2023/10/31 00:56:20;;;;;;;;;;;;;;;;;;5020547;28;5000;-60
2023/10/31 00:58:45;;;;;;;;;;;;;;;;;;4994179;28;5233;-60
2023/10/31 01:01:17;;;;;;;;;;;;;;;;;;4995706;28;4545;-60
2023/10/31 01:06:45;;;;;;;;;;;;;;;;;;4995928;28;4866;-60
2023/10/31 01:09:11;;;;;;;;;;;;;;;;;;4991465;28;5102;-60
2023/10/31 01:11:36;;;;;;;;;;;;;;;;;;4995959;28;1078;-60
2023/10/31 01:14:01;;;;;;;;;;;;;;;;;;4994977;28;4959;-60
2023/10/31 01:16:27;;;;;;;;;;;;;;;;;;4995170;28;5030;-59
2023/10/31 01:18:52;;;;;;;;;;;;;;;;;;4995532;28;5072;-60
2023/10/31 01:21:17;;;;;;;;;;;;;;;;;;4995457;28;4834;-60
2023/10/31 01:23:42;;;;;;;;;;;;;;;;;;4995634;28;1910;-59
2023/10/31 01:29:10;;;;;;;;;;;;;;;;;;4995179;28;4600;-60
2023/10/31 01:31:37;;;;;;;;;;;;;;;;;;4995021;28;5076;-60
2023/10/31 01:34:02;;;;;;;;;;;;;;;;;;4994979;28;4438;-60
2023/10/31 01:36:27;;;;;;;;;;;;;;;;;;5010011;28;5113;-60
2023/10/31 01:41:55;;;;;;;;;;;;;;;;;;5014614;28;4625;-60
2023/10/31 01:47:24;;;;;;;;;;;;;;;;;;5015516;28;4563;-60
2023/10/31 01:49:50;;;;;;;;;;;;;;;;;;5014277;28;4542;-59
2023/10/31 01:52:15;;;;;;;;;;;;;;;;;;5014829;28;5028;-60
2023/10/31 01:57:44;;;;;;;;;;;;;;;;;;5014612;28;5098;-60
2023/10/31 02:03:12;;;;;;;;;;;;;;;;;;5014534;28;5281;-60
2023/10/31 02:05:37;;;;;;;;;;;;;;;;;;5014649;28;1127;-60
2023/10/31 02:08:03;;;;;;;;;;;;;;;;;;5014353;28;4976;-60
2023/10/31 02:10:29;;;;;;;;;;;;;;;;;;5013266;28;4991;-61
2023/10/31 02:22:01;;;;;;;;;;;;;;;;;;4994830;28;4689;-59
2023/10/31 02:27:29;;;;;;;;;;;;;;;;;;4998837;28;5169;-60
2023/10/31 02:29:55;;;;;;;;;;;;;;;;;;4998766;28;5000;-60
2023/10/31 02:32:20;;;;;;;;;;;;;;;;;;4999115;28;982;-60
2023/10/31 02:34:45;;;;;;;;;;;;;;;;;;4998757;28;5005;-60
2023/10/31 02:37:10;;;;;;;;;;;;;;;;;;4998450;28;4435;-60
2023/10/31 02:39:36;;;;;;;;;;;;;;;;;;4998693;28;4842;-60
2023/10/31 02:42:02;;;;;;;;;;;;;;;;;;4998284;28;5053;-60
2023/10/31 02:47:30;;;;;;;;;;;;;;;;;;4999441;28;4608;-60
2023/10/31 02:49:55;;;;;;;;;;;;;;;;;;4998021;28;4957;-60
2023/10/31 02:52:20;;;;;;;;;;;;;;;;;;4998635;28;4620;-60
2023/10/31 02:54:46;;;;;;;;;;;;;;;;;;4998438;28;5184;-60
2023/10/31 02:57:12;;;;;;;;;;;;;;;;;;4997870;28;5213;-60
2023/10/31 02:59:37;;;;;;;;;;;;;;;;;;5012243;28;1106;-60
2023/10/31 03:02:02;;;;;;;;;;;;;;;;;;4997886;28;4623;-60
2023/10/31 03:04:27;;;;;;;;;;;;;;;;;;4997837;28;5075;-60
2023/10/31 03:06:53;;;;;;;;;;;;;;;;;;4998177;28;4442;-59
2023/10/31 03:09:18;;;;;;;;;;;;;;;;;;4997176;28;5637;-59
2023/10/31 03:11:43;;;;;;;;;;;;;;;;;;4996170;28;1166;-59
2023/10/31 03:17:11;;;;;;;;;;;;;;;;;;4997862;28;4534;-59
2023/10/31 03:19:36;;;;;;;;;;;;;;;;;;4997264;28;5003;-59
2023/10/31 03:22:01;;;;;;;;;;;;;;;;;;4997655;28;4586;-59
2023/10/31 03:24:27;;;;;;;;;;;;;;;;;;4997471;28;4977;-59
2023/10/31 03:26:52;;;;;;;;;;;;;;;;;;4997633;28;5178;-60
2023/10/31 03:29:19;;;;;;;;;;;;;;;;;;4998470;28;1205;-59
2023/10/31 03:31:44;;;;;;;;;;;;;;;;;;4979719;28;4951;-59
2023/10/31 03:37:32;;;;;;;;;;;;;;;;;;4996929;28;4723;-59
2023/10/31 03:43:00;;;;;;;;;;;;;;;;;;4997285;28;4449;-59
2023/10/31 03:45:25;;;;;;;;;;;;;;;;;;4997027;28;4946;-59
2023/10/31 03:47:51;;;;;;;;;;;;;;;;;;4997791;28;1076;-59
2023/10/31 03:50:16;;;;;;;;;;;;;;;;;;4997320;28;4931;-59
2023/10/31 03:55:44;;;;;;;;;;;;;;;;;;4997556;28;5498;-59
2023/10/31 03:58:09;;;;;;;;;;;;;;;;;;4979360;28;5228;-59
2023/10/31 04:00:34;;;;;;;;;;;;;;;;;;4996708;28;5060;-59
2023/10/31 04:03:00;;;;;;;;;;;;;;;;;;4996835;28;5078;-60
2023/10/31 04:11:57;;;;;;;;;;;;;;;;;;4996560;28;4758;-59
2023/10/31 04:14:22;;;;;;;;;;;;;;;;;;4997005;28;5323;-59
2023/10/31 04:16:47;;;;;;;;;;;;;;;;;;5008750;28;5324;-59
2023/10/31 04:19:15;;;;;;;;;;;;;;;;;;4996370;28;5003;-59
2023/10/31 04:21:41;;;;;;;;;;;;;;;;;;4996705;28;4708;-59
2023/10/31 04:24:06;;;;;;;;;;;;;;;;;;4995479;28;4737;-59
2023/10/31 04:29:34;;;;;;;;;;;;;;;;;;4977873;28;4611;-59
2023/10/31 04:31:59;;;;;;;;;;;;;;;;;;4993938;28;4471;-59
2023/10/31 04:34:24;;;;;;;;;;;;;;;;;;4994640;28;5148;-59
2023/10/31 04:36:50;;;;;;;;;;;;;;;;;;4994464;28;4999;-59
2023/10/31 04:54:36;;;;;;;;;;;;;;;;;;5015412;28;5123;-59
2023/10/31 04:57:03;;;;;;;;;;;;;;;;;;5005984;28;5165;-59
2023/10/31 05:11:38;;;;;;;;;;;;;;;;;;4984287;28;5556;-59
2023/10/31 05:14:03;;;;;;;;;;;;;;;;;;4996307;28;4928;-58
2023/10/31 05:16:28;;;;;;;;;;;;;;;;;;4995703;28;4606;-59
2023/10/31 05:21:56;;;;;;;;;;;;;;;;;;4995510;28;4435;-59
2023/10/31 05:24:21;;;;;;;;;;;;;;;;;;4995028;28;5071;-59
2023/10/31 05:26:47;;;;;;;;;;;;;;;;;;4995491;28;1276;-59
2023/10/31 05:29:12;;;;;;;;;;;;;;;;;;4995113;28;5077;-59
2023/10/31 05:34:41;;;;;;;;;;;;;;;;;;4995405;28;5092;-59
2023/10/31 05:37:07;;;;;;;;;;;;;;;;;;5010149;28;5027;-59
2023/10/31 05:39:32;;;;;;;;;;;;;;;;;;4995014;28;5065;-59
2023/10/31 05:41:57;;;;;;;;;;;;;;;;;;4994829;28;5002;-60
2023/10/31 05:47:25;;;;;;;;;;;;;;;;;;4995721;28;4755;-59
2023/10/31 05:52:53;;;;;;;;;;;;;;;;;;4995636;28;4489;-59
2023/10/31 05:55:18;;;;;;;;;;;;;;;;;;4994838;28;4538;-60
2023/10/31 05:57:44;;;;;;;;;;;;;;;;;;4994904;28;4935;-59
2023/10/31 06:00:09;;;;;;;;;;;;;;;;;;4994061;28;4647;-59
2023/10/31 06:05:38;;;;;;;;;;;;;;;;;;4995584;28;4616;-59
2023/10/31 06:08:03;;;;;;;;;;;;;;;;;;4994612;28;5067;-59
2023/10/31 06:10:28;;;;;;;;;;;;;;;;;;4994365;28;4760;-59
2023/10/31 06:15:57;;;;;;;;;;;;;;;;;;4994956;28;5121;-59
2023/10/31 06:27:30;;;;;;;;;;;;;;;;;;4994841;28;4650;-60
2023/10/31 06:29:56;;;;;;;;;;;;;;;;;;4993012;28;5065;-61
2023/10/31 06:32:21;;;;;;;;;;;;;;;;;;4995238;28;1200;-60
2023/10/31 06:34:47;;;;;;;;;;;;;;;;;;4993119;28;4494;-60
2023/10/31 06:40:15;;;;;;;;;;;;;;;;;;4994611;28;5833;-60
2023/10/31 06:42:40;;;;;;;;;;;;;;;;;;4994011;28;4974;-52
2023/10/31 06:45:05;;;;;;;;;;;;;;;;;;4994220;28;4538;-52
2023/10/31 06:47:31;;;;;;;;;;;;;;;;;;4994835;28;1024;-49
2023/10/31 06:52:59;;;;;;;;;;;;;;;;;;4994134;28;5104;-53
2023/10/31 06:58:27;;;;;;;;;;;;;;;;;;4994319;28;5088;-53
2023/10/31 07:00:52;;;;;;;;;;;;;;;;;;4993918;28;4983;-52
2023/10/31 07:03:18;;;;;;;;;;;;;;;;;;4993920;28;4588;-57
2023/10/31 07:05:43;;;;;;;;;;;;;;;;;;5001485;28;1625;-57
2023/10/31 07:11:34;;;;;;;;;;;;;;;;;;4994024;28;4691;-56
2023/10/31 07:14:00;;;;;;;;;;;;;;;;;;4997540;28;5323;-56
2023/10/31 07:16:26;;;;;;;;;;;;;;;;;;5001696;28;5164;-56
2023/10/31 07:18:51;;;;;;;;;;;;;;;;;;4998226;28;4996;-57
2023/10/31 07:21:16;;;;;;;;;;;;;;;;;;5020421;28;5109;-55
2023/10/31 07:26:44;;;;;;;;;;;;;;;;;;5017646;28;4686;-57
2023/10/31 07:29:09;;;;;;;;;;;;;;;;;;4996887;28;5029;-57
2023/10/31 07:31:38;;;;;;;;;;;;;;;;;;4997007;28;4622;-57
2023/10/31 07:34:03;;;;;;;;;;;;;;;;;;4995663;28;4835;-57
2023/10/31 07:36:32;;;;;;;;;;;;;;;;;;4993586;28;5003;-57
2023/10/31 07:38:58;;;;;;;;;;;;;;;;;;4993710;28;5037;-57
2023/10/31 07:41:23;;;;;;;;;;;;;;;;;;4995068;28;2799;-57
2023/10/31 07:43:48;;;;;;;;;;;;;;;;;;5000208;28;4671;-57
2023/10/31 07:46:14;;;;;;;;;;;;;;;;;;4996055;28;4555;-57
2023/10/31 07:48:39;;;;;;;;;;;;;;;;;;5002717;28;5294;-57
2023/10/31 07:51:04;;;;;;;;;;;;;;;;;;5000055;28;5073;-57
2023/10/31 07:56:34;;;;;;;;;;;;;;;;;;5017415;28;4602;-57
2023/10/31 08:02:03;;;;;;;;;;;;;;;;;;5017355;28;5182;-56
2023/10/31 08:07:31;;;;;;;;;;;;;;;;;;5016276;28;4544;-56
2023/10/31 08:13:05;;;;;;;;;;;;;;;;;;5008721;28;4540;-56
2023/10/31 08:21:38;;;;;;;;;;;;;;;;;;5035415;28;4488;-57
2023/10/31 08:30:09;;;;;;;;;;;;;;;;;;4996345;28;5157;-57
2023/10/31 08:32:34;;;;;;;;;;;;;;;;;;4996972;28;1586;-56
2023/10/31 08:35:01;;;;;;;;;;;;;;;;;;4996313;28;5032;-56
2023/10/31 08:37:26;;;;;;;;;;;;;;;;;;4996231;28;4641;-57
2023/10/31 08:39:51;;;;;;;;;;;;;;;;;;4996040;28;4458;-57
2023/10/31 08:42:16;;;;;;;;;;;;;;;;;;4996161;28;4494;-57
2023/10/31 08:44:42;;;;;;;;;;;;;;;;;;4996790;28;1983;-56
2023/10/31 08:50:12;;;;;;;;;;;;;;;;;;5015253;28;5028;-59
2023/10/31 08:52:37;;;;;;;;;;;;;;;;;;4993531;28;4510;-55
2023/10/31 09:01:08;;;;;;;;;;;;;;;;;;4996480;28;4635;-57
2023/10/31 09:03:41;;;;;;;;;;;;;;;;;;4993949;28;4496;-54
2023/10/31 09:06:06;;;;;;;;;;;;;;;;;;4995942;28;4607;-57
2023/10/31 09:08:31;;;;;;;;;;;;;;;;;;4995680;28;1545;-55
2023/10/31 09:10:57;;;;;;;;;;;;;;;;;;4995272;28;4435;-55
2023/10/31 09:13:22;;;;;;;;;;;;;;;;;;4986623;28;5155;-55
2023/10/31 09:15:49;;;;;;;;;;;;;;;;;;4975772;28;4450;-55
2023/10/31 09:36:34;;;;;;;;;;;;;;;;;;4994919;28;4433;-57
2023/10/31 09:42:01;;;;;;;;;;;;;;;;;;4995001;28;5511;-56
2023/10/31 09:47:30;;;;;;;;;;;;;;;;;;4976373;28;4782;-57
2023/10/31 09:49:55;;;;;;;;;;;;;;;;;;4941807;28;5247;-57
2023/10/31 09:52:20;;;;;;;;;;;;;;;;;;4975405;28;4406;-57
2023/10/31 09:54:46;;;;;;;;;;;;;;;;;;4957590;28;5009;-57
2023/10/31 10:00:15;;;;;;;;;;;;;;;;;;4973681;28;5222;-56
2023/10/31 10:02:40;;;;;;;;;;;;;;;;;;4973804;28;1045;-57
2023/10/31 10:05:05;;;;;;;;;;;;;;;;;;4974813;28;4859;-56
2023/10/31 10:07:31;;;;;;;;;;;;;;;;;;4975013;28;4986;-57
2023/10/31 10:13:02;;;;;;;;;;;;;;;;;;4993988;28;4886;-57
2023/10/31 10:21:45;;;;;;;;;;;;;;;;;;4992790;28;5178;-56
2023/10/31 10:24:10;;;;;;;;;;;;;;;;;;4994071;28;4551;-57
2023/10/31 10:26:36;;;;;;;;;;;;;;;;;;4993434;28;1200;-58
2023/10/31 10:29:01;;;;;;;;;;;;;;;;;;4976656;28;4497;-57
2023/10/31 10:31:26;;;;;;;;;;;;;;;;;;4994197;28;4978;-57
2023/10/31 10:33:51;;;;;;;;;;;;;;;;;;4994278;28;5224;-55
2023/10/31 10:36:17;;;;;;;;;;;;;;;;;;4993705;28;4647;-57
2023/10/31 10:38:59;;;;;;;;;;;;;;;;;;5003976;28;2731;-55
2023/10/31 10:44:30;;;;;;;;;;;;;;;;;;4975198;28;4835;-57
2023/10/31 10:46:55;;;;;;;;;;;;;;;;;;4994965;28;5147;-58
2023/10/31 10:49:21;;;;;;;;;;;;;;;;;;4997849;28;5097;-57
2023/10/31 10:51:51;;;;;;;;;;;;;;;;;;4997734;28;4480;-57
2023/10/31 10:57:41;;;;;;;;;;;;;;;;;;4981979;28;4472;-56
2023/10/31 11:00:08;;;;;;;;;;;;;;;;;;4994242;28;4569;-56
2023/10/31 11:05:36;;;;;;;;;;;;;;;;;;4998308;28;4612;-55
2023/10/31 11:08:02;;;;;;;;;;;;;;;;;;5010653;28;4431;-56
2023/10/31 11:10:27;;;;;;;;;;;;;;;;;;4996650;28;5500;-56
2023/10/31 11:12:53;;;;;;;;;;;;;;;;;;5025394;28;5041;-56
2023/10/31 11:24:49;;;;;;;;;;;;;;;;;;4974697;28;5165;-58
2023/10/31 11:27:15;;;;;;;;;;;;;;;;;;4997250;28;4622;-58
2023/10/31 11:29:40;;;;;;;;;;;;;;;;;;4977073;28;5286;-57
2023/10/31 11:32:09;;;;;;;;;;;;;;;;;;4983777;28;4850;-58
2023/10/31 11:34:42;;;;;;;;;;;;;;;;;;4981053;28;5015;-58
2023/10/31 11:37:22;;;;;;;;;;;;;;;;;;4996031;28;5014;-58
2023/10/31 11:42:56;;;;;;;;;;;;;;;;;;4995734;28;5254;-56
2023/10/31 11:48:44;;;;;;;;;;;;;;;;;;4997164;28;4930;-57
2023/10/31 12:03:26;;;;;;;;;;;;;;;;;;4977017;28;5049;-57
2023/10/31 12:08:58;;;;;;;;;;;;;;;;;;5016314;28;4834;-58
2023/10/31 12:11:52;;;;;;;;;;;;;;;;;;5016791;28;1128;-57
2023/10/31 12:14:39;;;;;;;;;;;;;;;;;;5029620;28;5291;-58
2023/10/31 12:20:08;;;;;;;;;;;;;;;;;;4996649;28;5156;-58
2023/10/31 12:25:45;;;;;;;;;;;;;;;;;;4996850;28;4824;-57
2023/10/31 12:28:10;;;;;;;;;;;;;;;;;;4996259;28;4467;-58
2023/10/31 12:30:36;;;;;;;;;;;;;;;;;;5011552;28;4570;-57
2023/10/31 12:42:10;;;;;;;;;;;;;;;;;;4996073;28;5107;-58
2023/10/31 12:44:36;;;;;;;;;;;;;;;;;;5025915;28;1910;-58
2023/10/31 12:47:01;;;;;;;;;;;;;;;;;;4994341;28;5380;-58
2023/10/31 12:49:27;;;;;;;;;;;;;;;;;;4993804;28;5225;-57
2023/10/31 12:54:56;;;;;;;;;;;;;;;;;;4995553;28;5036;-58
2023/10/31 12:57:22;;;;;;;;;;;;;;;;;;5005575;28;4720;-58
2023/10/31 12:59:48;;;;;;;;;;;;;;;;;;5014588;28;2697;-58
2023/10/31 13:02:16;;;;;;;;;;;;;;;;;;4997355;28;5004;-58
2023/10/31 13:05:01;;;;;;;;;;;;;;;;;;5014429;28;4567;-58
2023/10/31 13:07:27;;;;;;;;;;;;;;;;;;5001779;28;5038;-58
2023/10/31 13:09:52;;;;;;;;;;;;;;;;;;4994700;28;4942;-58
2023/10/31 13:12:37;;;;;;;;;;;;;;;;;;4995685;28;4619;-58
2023/10/31 13:15:02;;;;;;;;;;;;;;;;;;4981281;28;5093;-58
2023/10/31 13:20:31;;;;;;;;;;;;;;;;;;4976629;28;4642;-57
2023/10/31 13:22:57;;;;;;;;;;;;;;;;;;4975154;28;5099;-58
2023/10/31 13:25:22;;;;;;;;;;;;;;;;;;4963685;28;5139;-57
2023/10/31 13:27:51;;;;;;;;;;;;;;;;;;4956509;29;5427;-57
2023/10/31 13:33:14;;;;;;;;;;;;;;;;;;4953837;28;5278;-58
2023/10/31 13:35:40;;;;;;;;;;;;;;;;;;4967859;28;2623;-57
2023/10/31 13:38:05;;;;;;;;;;;;;;;;;;4957161;28;4541;-58
2023/10/31 13:43:33;;;;;;;;;;;;;;;;;;4956406;29;4439;-58
2023/10/31 13:45:58;;;;;;;;;;;;;;;;;;4954514;28;4961;-58
2023/10/31 13:48:23;;;;;;;;;;;;;;;;;;4955882;29;4663;-58
2023/10/31 13:50:49;;;;;;;;;;;;;;;;;;4956366;29;1053;-58
2023/10/31 13:53:15;;;;;;;;;;;;;;;;;;4955668;28;5007;-58
2023/10/31 13:55:40;;;;;;;;;;;;;;;;;;4956148;29;4449;-58
2023/10/31 13:58:07;;;;;;;;;;;;;;;;;;4956115;29;4476;-58
2023/10/31 14:00:32;;;;;;;;;;;;;;;;;;4943655;28;4491;-57
2023/10/31 14:02:58;;;;;;;;;;;;;;;;;;4974221;28;4608;-58
2023/10/31 14:05:23;;;;;;;;;;;;;;;;;;4971054;28;1919;-58
2023/10/31 14:07:49;;;;;;;;;;;;;;;;;;4953977;28;4451;-58
2023/10/31 14:10:14;;;;;;;;;;;;;;;;;;4963932;28;5205;-58
2023/10/31 14:12:48;;;;;;;;;;;;;;;;;;4945195;28;5115;-57
2023/10/31 14:18:15;;;;;;;;;;;;;;;;;;4974990;28;5050;-58
2023/10/31 14:23:45;;;;;;;;;;;;;;;;;;4977845;28;4533;-56
2023/10/31 14:26:12;;;;;;;;;;;;;;;;;;4997480;28;5010;-56
2023/10/31 14:28:39;;;;;;;;;;;;;;;;;;4984048;28;5086;-56
2023/10/31 14:31:04;;;;;;;;;;;;;;;;;;4978725;28;5345;-56
2023/10/31 14:37:08;;;;;;;;;;;;;;;;;;4996952;28;5155;-57
2023/10/31 14:45:39;;;;;;;;;;;;;;;;;;5015226;28;5087;-57
2023/10/31 14:48:04;;;;;;;;;;;;;;;;;;5017754;28;4440;-56
2023/10/31 14:50:29;;;;;;;;;;;;;;;;;;5018709;28;1328;-56
2023/10/31 14:52:55;;;;;;;;;;;;;;;;;;5017545;28;4993;-56
2023/10/31 14:55:20;;;;;;;;;;;;;;;;;;4996107;28;4745;-56
2023/10/31 14:57:45;;;;;;;;;;;;;;;;;;5009291;28;4528;-56
2023/10/31 15:00:12;;;;;;;;;;;;;;;;;;5000051;28;4569;-56
2023/10/31 15:05:40;;;;;;;;;;;;;;;;;;4979369;28;4557;-57
2023/10/31 15:11:08;;;;;;;;;;;;;;;;;;4979593;28;5081;-57
2023/10/31 15:17:02;;;;;;;;;;;;;;;;;;4982643;28;4467;-57
2023/10/31 15:19:28;;;;;;;;;;;;;;;;;;4977860;28;4480;-57
2023/10/31 15:21:54;;;;;;;;;;;;;;;;;;4978002;28;5057;-57
2023/10/31 15:27:23;;;;;;;;;;;;;;;;;;4978292;28;4805;-57
2023/10/31 15:29:48;;;;;;;;;;;;;;;;;;4960876;28;1515;-57
2023/10/31 15:32:13;;;;;;;;;;;;;;;;;;4976643;28;5079;-57
2023/10/31 15:34:40;;;;;;;;;;;;;;;;;;4977245;28;5076;-57
2023/10/31 15:40:08;;;;;;;;;;;;;;;;;;4977657;28;4437;-57
2023/10/31 15:42:34;;;;;;;;;;;;;;;;;;4977556;28;4993;-57
2023/10/31 15:45:00;;;;;;;;;;;;;;;;;;4977544;28;5258;-56
2023/10/31 15:47:53;;;;;;;;;;;;;;;;;;4979011;28;1208;-58
2023/10/31 15:50:18;;;;;;;;;;;;;;;;;;4977826;28;5245;-62
2023/10/31 15:52:44;;;;;;;;;;;;;;;;;;4977793;28;4504;-61
2023/10/31 15:55:09;;;;;;;;;;;;;;;;;;4977736;28;4610;-61
2023/10/31 16:03:40;;;;;;;;;;;;;;;;;;4977682;28;4440;-63
2023/10/31 16:06:06;;;;;;;;;;;;;;;;;;4977175;28;4472;-62
2023/10/31 16:08:31;;;;;;;;;;;;;;;;;;4977599;28;1078;-62
2023/10/31 16:10:56;;;;;;;;;;;;;;;;;;4977290;28;5003;-62
2023/10/31 16:13:22;;;;;;;;;;;;;;;;;;4977277;28;4910;-61
2023/10/31 16:15:48;;;;;;;;;;;;;;;;;;4976876;28;5033;-60
2023/10/31 16:18:14;;;;;;;;;;;;;;;;;;4959500;28;4489;-60
2023/10/31 16:23:30;;;;;;;;;;;;;;;;;;4981892;28;4640;-60
2023/10/31 16:29:04;;;;;;;;;;;;;;;;;;4977136;28;5276;-60
2023/10/31 16:38:05;;;;;;;;;;;;;;;;;;4976713;28;4655;-60
2023/10/31 16:43:38;;;;;;;;;;;;;;;;;;4976519;28;4596;-60
2023/10/31 16:49:06;;;;;;;;;;;;;;;;;;4976521;28;4456;-59
2023/10/31 16:51:31;;;;;;;;;;;;;;;;;;4957299;28;5072;-59
2023/10/31 16:53:58;;;;;;;;;;;;;;;;;;4986862;28;4762;-58
2023/10/31 16:56:23;;;;;;;;;;;;;;;;;;4970949;28;2169;-60
2023/10/31 16:59:12;;;;;;;;;;;;;;;;;;4976102;28;4510;-59
2023/10/31 17:05:05;;;;;;;;;;;;;;;;;;4973306;28;4508;-59
2023/10/31 17:07:30;;;;;;;;;;;;;;;;;;4973284;28;4639;-62
2023/10/31 17:09:56;;;;;;;;;;;;;;;;;;4975955;28;4634;-61
2023/10/31 17:12:21;;;;;;;;;;;;;;;;;;4971589;28;4533;-62
2023/10/31 17:17:55;;;;;;;;;;;;;;;;;;4972055;28;5130;-61
2023/10/31 17:20:21;;;;;;;;;;;;;;;;;;4972087;28;1271;-61
2023/10/31 17:22:46;;;;;;;;;;;;;;;;;;4978650;28;5011;-59
2023/10/31 17:25:11;;;;;;;;;;;;;;;;;;4980507;28;4836;-59
2023/10/31 17:27:37;;;;;;;;;;;;;;;;;;4977266;28;4629;-60
2023/10/31 17:36:27;;;;;;;;;;;;;;;;;;4990035;28;4528;-59
2023/10/31 17:38:53;;;;;;;;;;;;;;;;;;4985455;28;5264;-59
2023/10/31 17:41:19;;;;;;;;;;;;;;;;;;4995389;28;1081;-59
2023/10/31 17:43:44;;;;;;;;;;;;;;;;;;4958916;28;4933;-60
2023/10/31 17:46:10;;;;;;;;;;;;;;;;;;4986387;28;5695;-60
2023/10/31 17:48:35;;;;;;;;;;;;;;;;;;5009246;28;5170;-60
2023/10/31 17:51:01;;;;;;;;;;;;;;;;;;4986286;28;5103;-59
2023/10/31 17:53:27;;;;;;;;;;;;;;;;;;4973201;28;1137;-61
2023/10/31 17:55:57;;;;;;;;;;;;;;;;;;4986703;28;5018;-60
2023/10/31 17:58:23;;;;;;;;;;;;;;;;;;4991853;28;5301;-60
2023/10/31 18:00:48;;;;;;;;;;;;;;;;;;4989176;28;4939;-60
2023/10/31 18:03:16;;;;;;;;;;;;;;;;;;5006341;28;5021;-60
2023/10/31 18:05:45;;;;;;;;;;;;;;;;;;4955917;28;1970;-60
2023/10/31 18:08:10;;;;;;;;;;;;;;;;;;4992401;28;4812;-60
2023/10/31 18:11:02;;;;;;;;;;;;;;;;;;4995138;28;4981;-59
2023/10/31 18:16:31;;;;;;;;;;;;;;;;;;4998228;28;5141;-60
2023/10/31 18:18:56;;;;;;;;;;;;;;;;;;4993718;28;5040;-60
2023/10/31 18:21:24;;;;;;;;;;;;;;;;;;4989060;28;5106;-60
2023/10/31 18:23:52;;;;;;;;;;;;;;;;;;4995635;28;2980;-57
2023/10/31 18:26:18;;;;;;;;;;;;;;;;;;5019741;28;4916;-56
2023/10/31 18:31:46;;;;;;;;;;;;;;;;;;4989871;28;5076;-55
2023/10/31 18:34:11;;;;;;;;;;;;;;;;;;4990707;28;5223;-55
2023/10/31 18:36:37;;;;;;;;;;;;;;;;;;5028204;28;5168;-55
2023/10/31 18:39:13;;;;;;;;;;;;;;;;;;5012301;28;5098;-56
2023/10/31 18:41:39;;;;;;;;;;;;;;;;;;4993011;28;1175;-55
2023/10/31 18:44:04;;;;;;;;;;;;;;;;;;4994920;28;4628;-55
2023/10/31 18:46:30;;;;;;;;;;;;;;;;;;4990800;28;5059;-55
2023/10/31 18:48:55;;;;;;;;;;;;;;;;;;5010008;28;5179;-55
2023/10/31 18:51:21;;;;;;;;;;;;;;;;;;4999787;28;5166;-55
2023/10/31 18:54:15;;;;;;;;;;;;;;;;;;5003191;28;2558;-55
2023/10/31 18:56:41;;;;;;;;;;;;;;;;;;5009735;28;6666;-55
2023/10/31 18:59:06;;;;;;;;;;;;;;;;;;5000312;28;5289;-55
2023/10/31 19:01:32;;;;;;;;;;;;;;;;;;4995582;28;4945;-55
2023/10/31 19:03:57;;;;;;;;;;;;;;;;;;4999257;28;5072;-55
2023/10/31 19:06:22;;;;;;;;;;;;;;;;;;5018957;28;5265;-57
2023/10/31 19:08:48;;;;;;;;;;;;;;;;;;5035054;28;999;-55
2023/10/31 19:11:15;;;;;;;;;;;;;;;;;;5000902;28;5000;-56
2023/10/31 19:13:44;;;;;;;;;;;;;;;;;;5002054;28;4596;-56
2023/10/31 19:16:23;;;;;;;;;;;;;;;;;;5017433;28;4863;-55
2023/10/31 19:30:53;;;;;;;;;;;;;;;;;;4977906;28;5128;-56
2023/10/31 19:39:44;;;;;;;;;;;;;;;;;;4959376;28;4963;-56
2023/10/31 19:42:09;;;;;;;;;;;;;;;;;;4968942;28;4477;-56
2023/10/31 19:44:35;;;;;;;;;;;;;;;;;;4962614;28;1954;-56
2023/10/31 19:47:01;;;;;;;;;;;;;;;;;;4962377;28;5168;-55
2023/10/31 19:52:29;;;;;;;;;;;;;;;;;;4958618;29;5095;-58
2023/10/31 19:54:54;;;;;;;;;;;;;;;;;;4957881;29;5026;-56
2023/10/31 19:57:19;;;;;;;;;;;;;;;;;;4958553;28;4462;-56
2023/10/31 19:59:48;;;;;;;;;;;;;;;;;;4940922;29;2321;-56
2023/10/31 20:02:13;;;;;;;;;;;;;;;;;;4957702;28;4598;-56
2023/10/31 20:04:38;;;;;;;;;;;;;;;;;;4957280;29;4936;-55
2023/10/31 20:07:04;;;;;;;;;;;;;;;;;;4958051;29;5059;-56
2023/10/31 20:09:29;;;;;;;;;;;;;;;;;;4957941;29;4954;-56
2023/10/31 20:11:56;;;;;;;;;;;;;;;;;;4973529;28;4942;-56
2023/10/31 20:14:22;;;;;;;;;;;;;;;;;;4958832;29;968;-60
2023/10/31 20:16:47;;;;;;;;;;;;;;;;;;4957890;28;4953;-59
2023/10/31 20:19:12;;;;;;;;;;;;;;;;;;4976641;28;5161;-59
2023/10/31 20:21:41;;;;;;;;;;;;;;;;;;4976888;28;4653;-58
2023/10/31 20:24:07;;;;;;;;;;;;;;;;;;4991920;28;5020;-59
2023/10/31 20:26:32;;;;;;;;;;;;;;;;;;4977486;28;1070;-59
2023/10/31 20:32:00;;;;;;;;;;;;;;;;;;4976771;28;5070;-62
2023/10/31 20:34:25;;;;;;;;;;;;;;;;;;4976380;28;4969;-64
2023/10/31 20:36:51;;;;;;;;;;;;;;;;;;4976723;28;4640;-63
2023/10/31 20:39:17;;;;;;;;;;;;;;;;;;4992059;28;4931;-64
2023/10/31 20:44:44;;;;;;;;;;;;;;;;;;4996581;28;4571;-64
2023/10/31 20:50:14;;;;;;;;;;;;;;;;;;4996389;28;5130;-64
2023/10/31 20:52:39;;;;;;;;;;;;;;;;;;4995896;28;4949;-65
2023/10/31 20:55:07;;;;;;;;;;;;;;;;;;4995633;28;4868;-64
2023/10/31 21:00:35;;;;;;;;;;;;;;;;;;4995899;28;4418;-64
2023/10/31 21:06:03;;;;;;;;;;;;;;;;;;4995564;28;5145;-65
2023/10/31 21:08:29;;;;;;;;;;;;;;;;;;4995725;28;1296;-65
2023/10/31 21:10:55;;;;;;;;;;;;;;;;;;4995617;28;5140;-64
2023/10/31 21:13:20;;;;;;;;;;;;;;;;;;4986654;28;4588;-65
2023/10/31 21:18:55;;;;;;;;;;;;;;;;;;5010772;28;5007;-57
2023/10/31 21:24:23;;;;;;;;;;;;;;;;;;4995269;28;5028;-58
2023/10/31 21:32:54;;;;;;;;;;;;;;;;;;4976099;28;4544;-57
2023/10/31 21:38:22;;;;;;;;;;;;;;;;;;4995967;28;4744;-52
2023/10/31 21:43:50;;;;;;;;;;;;;;;;;;4975676;28;4961;-53
2023/10/31 21:46:16;;;;;;;;;;;;;;;;;;4968796;28;5109;-53
2023/10/31 21:48:42;;;;;;;;;;;;;;;;;;5000503;28;5185;-54
2023/10/31 21:51:07;;;;;;;;;;;;;;;;;;4977315;28;4957;-53
2023/10/31 22:05:58;;;;;;;;;;;;;;;;;;4993171;28;4683;-53
2023/10/31 22:08:24;;;;;;;;;;;;;;;;;;5005643;28;5178;-53
2023/10/31 22:10:49;;;;;;;;;;;;;;;;;;4979323;28;5533;-54
2023/10/31 22:16:17;;;;;;;;;;;;;;;;;;4975394;28;5377;-52
2023/10/31 22:22:25;;;;;;;;;;;;;;;;;;4973532;28;4478;-51
2023/10/31 22:24:50;;;;;;;;;;;;;;;;;;4975319;28;5110;-53
2023/10/31 22:27:16;;;;;;;;;;;;;;;;;;4974790;28;4403;-53
2023/10/31 22:29:42;;;;;;;;;;;;;;;;;;4975255;28;1069;-53
2023/10/31 22:32:07;;;;;;;;;;;;;;;;;;4956002;28;5021;-51
2023/10/31 22:34:32;;;;;;;;;;;;;;;;;;4975156;28;5123;-53
2023/10/31 22:40:04;;;;;;;;;;;;;;;;;;4975343;28;4684;-51
2023/10/31 22:42:30;;;;;;;;;;;;;;;;;;4977678;28;5013;-52
2023/10/31 22:44:55;;;;;;;;;;;;;;;;;;4978911;28;4882;-51
2023/10/31 22:47:20;;;;;;;;;;;;;;;;;;4979399;28;1138;-52
2023/10/31 22:52:49;;;;;;;;;;;;;;;;;;4979151;28;5483;-52
2023/10/31 22:55:14;;;;;;;;;;;;;;;;;;4992288;28;5186;-53
2023/10/31 22:57:40;;;;;;;;;;;;;;;;;;4998201;28;5058;-52
2023/10/31 23:00:15;;;;;;;;;;;;;;;;;;4997932;28;4999;-53
2023/10/31 23:05:44;;;;;;;;;;;;;;;;;;4998715;28;5429;-53
2023/10/31 23:11:13;;;;;;;;;;;;;;;;;;4998494;28;5054;-52
2023/10/31 23:13:38;;;;;;;;;;;;;;;;;;4997301;28;5067;-53
2023/10/31 23:16:03;;;;;;;;;;;;;;;;;;4998121;28;4966;-52
2023/10/31 23:18:29;;;;;;;;;;;;;;;;;;4997545;28;4470;-52
2023/10/31 23:20:57;;;;;;;;;;;;;;;;;;4997910;28;4645;-53
2023/10/31 23:23:23;;;;;;;;;;;;;;;;;;5018107;28;1315;-53
2023/10/31 23:25:49;;;;;;;;;;;;;;;;;;5017000;28;5190;-52
2023/10/31 23:31:16;;;;;;;;;;;;;;;;;;5017465;28;4660;-53
2023/10/31 23:36:44;;;;;;;;;;;;;;;;;;5016994;28;5082;-53
2023/10/31 23:39:09;;;;;;;;;;;;;;;;;;5017010;28;5120;-54
2023/10/31 23:41:35;;;;;;;;;;;;;;;;;;5017816;28;1082;-54
2023/10/31 23:44:01;;;;;;;;;;;;;;;;;;5016580;28;5370;-52
2023/10/31 23:49:29;;;;;;;;;;;;;;;;;;5017294;28;5050;-53
2023/10/31 23:51:54;;;;;;;;;;;;;;;;;;5016595;28;5484;-54
2023/10/31 23:54:19;;;;;;;;;;;;;;;;;;5015592;28;4690;-53
2023/10/31 23:56:45;;;;;;;;;;;;;;;;;;5016831;28;1085;-54
